Time;durP1;ratioP1;P1;durP2;ratioP2;P2;SDS_P1;SDS_P2;PMS_P1;PMS_P2;Temp;Humidity;BMP_temperature;BMP_pressure;BME280_temperature;BME280_humidity;BME280_pressure;Samples;Min_cycle;Max_cycle;Signal;HPM_P1;HPM_P2
2022/05/08 00:01:20;;;;;;;1.00;0.70;;;;;;;9.85;60.45;95118.06;5031524;28;20590;-74
2022/05/08 00:03:47;;;;;;;1.85;1.10;;;;;;;9.78;60.75;95115.03;5035158;28;20204;-76
2022/05/08 00:06:14;;;;;;;1.35;1.17;;;;;;;9.75;61.06;95115.63;5034696;28;20239;-76
2022/05/08 00:08:41;;;;;;;24.38;1.70;;;;;;;9.67;61.37;95111.00;5034671;28;20682;-74
2022/05/08 00:11:09;;;;;;;1.63;1.10;;;;;;;9.61;61.29;95114.91;5034700;28;20216;-76
2022/05/08 00:13:36;;;;;;;1.30;1.00;;;;;;;9.58;61.38;95107.41;5034929;28;20263;-76
2022/05/08 00:16:03;;;;;;;0.80;0.80;;;;;;;9.51;61.44;95109.78;5034770;28;20204;-76
2022/05/08 00:18:30;;;;;;;1.67;1.00;;;;;;;9.42;62.04;95100.81;5035153;28;20200;-77
2022/05/08 00:20:57;;;;;;;3.78;1.63;;;;;;;9.48;62.02;95104.97;5034870;28;20223;-76
2022/05/08 00:23:24;;;;;;;1.52;1.05;;;;;;;9.41;62.10;95107.31;5034287;28;20204;-75
2022/05/08 00:25:51;;;;;;;5.63;1.42;;;;;;;9.40;62.26;95120.03;5034157;28;20562;-75
2022/05/08 00:28:19;;;;;;;5.95;1.33;;;;;;;9.35;62.36;95116.66;5034995;28;20200;-76
2022/05/08 00:30:46;;;;;;;2.00;1.27;;;;;;;9.32;62.28;95111.84;5034632;28;20200;-75
2022/05/08 00:33:13;;;;;;;5.45;1.23;;;;;;;9.29;62.10;95113.28;5034322;28;20664;-75
2022/05/08 00:35:40;;;;;;;2.35;1.65;;;;;;;9.35;62.00;95116.66;5033690;28;20254;-77
2022/05/08 00:38:08;;;;;;;1.20;1.10;;;;;;;9.30;62.10;95117.56;5015058;28;20575;-78
2022/05/08 00:40:37;;;;;;;1.83;1.10;;;;;;;9.19;62.82;95114.31;5039138;28;20314;-77
2022/05/08 00:43:35;;;;;;;4.95;1.92;;;;;;;9.05;63.38;95116.28;5025075;28;20223;-75
2022/05/08 00:46:03;;;;;;;0.98;0.88;;;;;;;9.00;63.48;95111.00;5036108;28;20228;-75
2022/05/08 00:48:30;;;;;;;1.95;1.13;;;;;;;8.96;63.84;95120.81;5034883;28;20224;-77
2022/05/08 00:50:58;;;;;;;1.13;0.93;;;;;;;8.96;63.83;95110.00;5034040;28;20726;-76
2022/05/08 00:53:27;;;;;;;3.97;1.75;;;;;;;8.90;63.91;95106.59;5034178;28;20200;-77
2022/05/08 00:55:55;;;;;;;1.55;1.00;;;;;;;8.91;63.90;95112.81;5034110;28;20286;-74
2022/05/08 00:58:22;;;;;;;2.67;1.50;;;;;;;8.83;64.37;95110.84;5034345;28;20319;-78
2022/05/08 01:00:50;;;;;;;6.40;1.30;;;;;;;8.81;64.22;95110.34;5034540;28;20228;-77
2022/05/08 01:03:17;;;;;;;2.58;1.52;;;;;;;8.72;64.67;95110.28;5033911;28;20231;-77
2022/05/08 01:05:45;;;;;;;1.70;0.90;;;;;;;8.72;64.21;95120.28;5033032;28;20232;-78
2022/05/08 01:08:13;;;;;;;1.23;1.08;;;;;;;8.71;64.11;95110.56;5033425;28;20216;-77
2022/05/08 01:10:41;;;;;;;2.75;1.35;;;;;;;8.70;63.83;95111.69;5021280;28;20262;-76
2022/05/08 01:13:08;;;;;;;2.90;1.58;;;;;;;8.68;63.56;95113.88;5032951;28;20211;-76
2022/05/08 01:15:42;;;;;;;1.45;1.05;;;;;;;8.63;63.63;95120.19;5033368;28;20215;-76
2022/05/08 01:18:12;;;;;;;7.47;1.42;;;;;;;8.65;63.41;95109.06;5033470;28;20222;-77
2022/05/08 01:20:40;;;;;;;1.88;1.35;;;;;;;8.68;63.12;95103.06;5033121;28;20223;-72
2022/05/08 01:23:10;;;;;;;2.88;1.63;;;;;;;8.68;62.79;95108.47;5033462;28;20207;-76
2022/05/08 01:25:46;;;;;;;5.35;1.70;;;;;;;8.57;63.25;95117.91;5033655;28;20232;-77
2022/05/08 01:28:13;;;;;;;3.75;1.65;;;;;;;8.51;63.41;95115.31;5033678;28;20192;-75
2022/05/08 01:30:40;;;;;;;3.20;1.85;;;;;;;8.48;63.33;95115.91;5033287;28;20207;-76
2022/05/08 01:33:07;;;;;;;2.97;1.52;;;;;;;8.42;63.49;95106.31;5033820;28;20236;-76
2022/05/08 01:35:35;;;;;;;5.82;1.73;;;;;;;8.48;63.40;95110.50;5033213;28;20204;-75
2022/05/08 01:38:02;;;;;;;4.00;1.10;;;;;;;8.40;63.04;95103.13;5033747;28;20247;-77
2022/05/08 01:40:31;;;;;;;2.15;1.30;;;;;;;8.45;62.88;95111.13;5033807;28;20231;-75
2022/05/08 01:42:58;;;;;;;1.25;1.05;;;;;;;8.37;63.05;95103.72;5035556;28;20240;-75
2022/05/08 01:45:25;;;;;;;1.67;1.33;;;;;;;8.28;63.04;95097.41;5040257;28;20255;-75
2022/05/08 01:50:37;;;;;;;2.60;1.20;;;;;;;8.28;62.99;95100.09;5035338;28;20200;-75
2022/05/08 01:53:04;;;;;;;3.80;1.70;;;;;;;8.29;62.89;95101.69;5053218;28;20202;-75
2022/05/08 01:55:32;;;;;;;2.05;1.42;;;;;;;8.25;62.96;95103.41;5050781;28;20655;-75
2022/05/08 01:58:01;;;;;;;1.77;1.25;;;;;;;8.25;63.00;95100.69;5033207;28;20205;-75
2022/05/08 02:00:29;;;;;;;3.58;1.48;;;;;;;8.27;62.87;95098.50;5033109;28;20288;-77
2022/05/08 02:03:00;;;;;;;1.15;1.05;;;;;;;8.12;64.02;95098.81;5032967;28;20201;-76
2022/05/08 02:05:28;;;;;;;6.82;1.52;;;;;;;8.13;63.31;95101.22;5024690;28;20593;-75
2022/05/08 02:07:55;;;;;;;1.92;1.58;;;;;;;8.15;63.25;95100.91;5032626;28;20315;-75
2022/05/08 02:10:22;;;;;;;2.25;1.60;;;;;;;8.10;63.61;95099.09;5032972;28;20216;-76
2022/05/08 02:12:51;;;;;;;2.47;1.38;;;;;;;8.03;63.95;95100.63;5032702;28;20200;-75
2022/05/08 02:15:18;;;;;;;1.73;1.58;;;;;;;7.96;63.98;95094.81;5032721;28;20215;-76
2022/05/08 02:17:45;;;;;;;5.60;1.50;;;;;;;7.99;63.67;95096.91;5032575;28;20233;-75
2022/05/08 02:20:12;;;;;;;2.53;1.25;;;;;;;7.87;64.07;95099.31;5032962;28;20224;-76
2022/05/08 02:22:39;;;;;;;2.80;1.70;;;;;;;7.89;64.01;95097.09;5032830;28;20251;-76
2022/05/08 02:25:07;;;;;;;1.40;1.02;;;;;;;7.88;63.20;95100.91;5032316;28;20228;-76
2022/05/08 02:27:38;;;;;;;4.65;1.67;;;;;;;7.82;63.61;95102.88;5032882;28;20950;-76
2022/05/08 02:30:09;;;;;;;2.10;1.33;;;;;;;7.79;63.37;95098.88;5032743;28;20204;-75
2022/05/08 02:32:37;;;;;;;4.53;1.55;;;;;;;7.74;63.91;95100.88;5032856;28;20204;-76
2022/05/08 02:35:06;;;;;;;1.92;1.30;;;;;;;7.64;65.35;95101.88;5019547;28;20633;-76
2022/05/08 02:37:33;;;;;;;3.97;1.77;;;;;;;7.58;64.49;95108.44;5019102;28;20209;-76
2022/05/08 02:40:00;;;;;;;5.82;1.80;;;;;;;7.53;63.68;95099.63;5032696;28;20220;-75
2022/05/08 02:42:27;;;;;;;2.33;1.17;;;;;;;7.41;64.21;95100.91;5032725;28;20604;-77
2022/05/08 02:44:54;;;;;;;7.03;2.00;;;;;;;7.37;64.14;95097.22;5041685;28;20228;-76
2022/05/08 02:47:22;;;;;;;2.83;1.52;;;;;;;7.44;63.74;95102.22;5032283;28;20611;-76
2022/05/08 02:49:49;;;;;;;2.00;1.50;;;;;;;7.47;63.48;95107.81;5031956;28;20200;-75
2022/05/08 02:52:16;;;;;;;6.40;1.60;;;;;;;7.38;63.93;95103.41;5032107;28;20208;-76
2022/05/08 02:54:43;;;;;;;1.65;1.55;;;;;;;7.38;62.68;95103.41;5032393;28;20208;-77
2022/05/08 02:59:53;;;;;;;2.53;1.40;;;;;;;7.27;62.99;95093.88;5032230;28;20567;-77
2022/05/08 03:02:22;;;;;;;1.40;1.30;;;;;;;7.29;63.32;95110.56;5032108;28;20215;-75
2022/05/08 03:04:49;;;;;;;5.05;2.88;;;;;;;7.15;64.20;95105.13;5031874;28;20664;-76
2022/05/08 03:07:15;;;;;;;5.65;2.47;;;;;;;7.13;62.99;95112.69;5031918;28;20583;-76
2022/05/08 03:09:42;;;;;;;4.40;2.70;;;;;;;7.17;64.93;95102.94;5031645;28;20227;-76
2022/05/08 03:12:10;;;;;;;5.00;2.65;;;;;;;7.14;64.97;95115.09;5031755;28;20220;-76
2022/05/08 03:14:38;;;;;;;4.80;2.55;;;;;;;7.24;64.95;95111.47;5031623;28;20393;-75
2022/05/08 03:17:06;;;;;;;4.20;2.88;;;;;;;7.24;64.37;95103.38;5031393;28;20270;-75
2022/05/08 03:19:36;;;;;;;5.38;2.83;;;;;;;7.37;64.14;95108.00;5031232;28;20882;-75
2022/05/08 03:22:03;;;;;;;15.68;7.70;;;;;;;7.31;64.68;95113.75;5031381;28;20587;-76
2022/05/08 03:24:31;;;;;;;2.05;1.35;;;;;;;7.51;62.47;95112.63;5031214;28;20210;-76
2022/05/08 03:26:58;;;;;;;3.47;1.80;;;;;;;7.73;61.43;95116.25;5031099;28;20411;-76
2022/05/08 03:29:26;;;;;;;5.53;1.92;;;;;;;8.13;62.35;95119.28;5031151;28;20212;-76
2022/05/08 03:31:53;;;;;;;2.63;1.50;;;;;;;8.74;60.73;95113.47;5031708;28;20577;-76
2022/05/08 03:34:20;;;;;;;3.65;2.10;;;;;;;9.38;58.61;95105.25;5031536;28;20211;-76
2022/05/08 03:36:48;;;;;;;3.42;1.95;;;;;;;9.82;58.05;95109.81;5030423;28;20201;-76
2022/05/08 03:39:15;;;;;;;4.63;2.03;;;;;;;10.56;55.79;95108.03;5030440;28;20220;-76
2022/05/08 03:41:42;;;;;;;3.88;2.55;;;;;;;11.13;54.79;95105.22;5031092;28;20832;-76
2022/05/08 03:44:09;;;;;;;1.73;1.45;;;;;;;11.25;52.41;95102.66;5041497;28;20235;-77
2022/05/08 03:46:36;;;;;;;3.00;1.60;;;;;;;12.13;50.65;95098.69;5031010;28;20703;-76
2022/05/08 03:49:03;;;;;;;3.67;1.45;;;;;;;12.97;47.81;95104.00;5031033;28;20672;-76
2022/05/08 03:51:30;;;;;;;2.70;1.50;;;;;;;12.97;47.34;95106.72;5030832;28;20208;-78
2022/05/08 03:53:58;;;;;;;3.33;1.58;;;;;;;13.66;45.49;95097.22;5031455;28;20254;-78
2022/05/08 03:56:27;;;;;;;3.17;1.50;;;;;;;14.60;43.55;95094.56;5031137;28;20609;-77
2022/05/08 03:58:54;;;;;;;2.67;1.85;;;;;;;15.74;42.49;95085.06;5031153;28;20208;-77
2022/05/08 04:01:21;;;;;;;3.45;1.58;;;;;;;16.49;40.83;95091.34;5031386;28;20220;-77
2022/05/08 04:03:48;;;;;;;6.88;4.85;;;;;;;16.44;39.64;95079.84;5031203;28;20548;-77
2022/05/08 04:06:15;;;;;;;7.32;4.40;;;;;;;16.41;39.97;95083.28;5031148;28;20236;-78
2022/05/08 04:08:42;;;;;;;6.78;2.85;;;;;;;16.85;38.03;95071.09;5047547;28;20231;-75
2022/05/08 04:11:10;;;;;;;4.05;2.00;;;;;;;17.17;37.53;95081.97;5040545;28;20555;-77
2022/05/08 04:13:37;;;;;;;3.38;1.98;;;;;;;17.26;37.88;95088.81;5031217;28;20670;-77
2022/05/08 04:16:21;;;;;;;2.75;1.40;;;;;;;18.08;35.86;95076.78;5031160;28;20214;-77
2022/05/08 04:18:48;;;;;;;5.80;2.55;;;;;;;18.73;34.59;95079.47;5017748;28;20227;-77
2022/05/08 04:21:15;;;;;;;4.32;2.17;;;;;;;18.72;34.10;95077.91;5031180;28;20204;-77
2022/05/08 04:26:30;;;;;;;7.13;2.58;;;;;;;19.72;32.72;95080.88;5031003;28;20266;-78
2022/05/08 04:28:57;;;;;;;4.20;2.13;;;;;;;19.73;32.67;95071.47;5030980;28;20211;-78
2022/05/08 04:31:24;;;;;;;4.80;2.03;;;;;;;19.71;32.89;95079.28;5031097;28;20266;-78
2022/05/08 04:33:51;;;;;;;3.30;2.38;;;;;;;19.92;33.31;95080.72;5031081;28;20258;-78
2022/05/08 04:36:18;;;;;;;4.43;2.40;;;;;;;21.01;31.50;95067.19;5030709;28;20211;-77
2022/05/08 04:38:44;;;;;;;4.35;2.55;;;;;;;20.91;31.59;95076.16;5030506;28;20220;-78
2022/05/08 04:41:11;;;;;;;5.90;2.45;;;;;;;20.53;31.77;95075.47;5030365;28;20207;-78
2022/05/08 04:43:40;;;;;;;5.60;2.45;;;;;;;21.06;31.61;95075.06;5038794;28;20227;-78
2022/05/08 04:46:07;;;;;;;5.28;2.83;;;;;;;21.06;30.02;95074.28;5031759;28;20283;-75
2022/05/08 04:48:33;;;;;;;4.50;2.40;;;;;;;21.47;29.76;95077.69;5012236;28;20926;-78
2022/05/08 04:51:01;;;;;;;4.03;2.33;;;;;;;20.92;30.47;95074.97;5032861;28;20204;-78
2022/05/08 04:53:27;;;;;;;5.55;2.50;;;;;;;20.11;31.01;95083.28;5045987;28;20582;-78
2022/05/08 04:55:54;;;;;;;4.07;2.70;;;;;;;20.68;30.75;95086.59;5035534;28;20211;-78
2022/05/08 04:58:21;;;;;;;6.57;2.53;;;;;;;21.12;30.33;95086.53;5034207;28;20208;-78
2022/05/08 05:00:49;;;;;;;7.50;2.55;;;;;;;22.59;29.13;95070.97;5033896;28;20212;-78
2022/05/08 05:03:16;;;;;;;5.38;2.30;;;;;;;22.42;28.23;95081.97;5034350;28;20539;-78
2022/05/08 05:05:43;;;;;;;2.53;2.00;;;;;;;22.85;28.18;95071.78;5033721;28;20223;-80
2022/05/08 05:08:10;;;;;;;6.38;2.40;;;;;;;23.63;27.73;95072.47;5034284;28;20208;-77
2022/05/08 05:10:37;;;;;;;3.92;2.45;;;;;;;24.07;26.34;95068.31;5033651;28;20201;-80
2022/05/08 05:13:03;;;;;;;3.17;2.75;;;;;;;23.67;26.74;95077.97;5033114;28;20196;-76
2022/05/08 05:15:30;;;;;;;2.95;2.53;;;;;;;24.19;26.61;95075.41;5033169;28;20200;-80
2022/05/08 05:18:01;;;;;;;4.07;2.30;;;;;;;23.22;27.32;95080.47;5033162;28;20204;-78
2022/05/08 05:20:28;;;;;;;4.97;2.30;;;;;;;24.05;26.87;95077.03;5032901;28;20199;-79
2022/05/08 05:22:55;;;;;;;3.35;2.25;;;;;;;23.29;27.76;95083.19;5033718;28;20196;-79
2022/05/08 05:25:22;;;;;;;3.95;2.88;;;;;;;23.73;27.32;95082.72;5032254;28;20207;-77
2022/05/08 05:27:48;;;;;;;3.53;2.40;;;;;;;24.34;27.20;95077.69;5032825;28;20582;-77
2022/05/08 05:30:16;;;;;;;5.55;2.17;;;;;;;22.99;27.57;95085.59;5033193;28;20677;-78
2022/05/08 05:32:43;;;;;;;4.82;2.03;;;;;;;23.91;27.51;95082.66;5032958;28;20196;-77
2022/05/08 05:35:11;;;;;;;3.67;2.10;;;;;;;24.59;26.74;95074.78;5033070;28;20211;-78
2022/05/08 05:37:38;;;;;;;4.72;2.58;;;;;;;23.47;26.78;95077.63;5032909;28;20235;-75
2022/05/08 05:40:06;;;;;;;4.88;2.35;;;;;;;23.43;26.96;95084.34;5033549;28;20201;-77
2022/05/08 05:42:33;;;;;;;3.78;2.33;;;;;;;24.82;26.34;95067.88;5032400;28;20259;-77
2022/05/08 05:45:00;;;;;;;3.58;2.03;;;;;;;26.07;24.76;95079.31;5032447;28;20398;-75
2022/05/08 05:50:13;;;;;;;5.78;2.78;;;;;;;21.84;29.12;95092.06;5033349;28;20270;-75
2022/05/08 05:52:40;;;;;;;4.10;2.60;;;;;;;22.54;28.36;95085.19;5032069;28;20430;-78
2022/05/08 05:55:08;;;;;;;5.72;2.38;;;;;;;22.38;28.13;95081.22;5032300;28;20211;-76
2022/05/08 05:57:36;;;;;;;4.22;2.30;;;;;;;22.97;28.67;95076.91;5032247;28;20204;-75
2022/05/08 06:00:03;;;;;;;4.03;2.55;;;;;;;22.59;29.06;95076.50;5032089;28;20319;-74
2022/05/08 06:02:31;;;;;;;6.22;2.80;;;;;;;20.42;30.12;95091.09;5032743;28;20262;-79
2022/05/08 06:04:58;;;;;;;6.72;2.83;;;;;;;22.54;28.35;95076.13;5032371;28;20224;-74
2022/05/08 06:07:26;;;;;;;3.83;2.50;;;;;;;23.21;28.10;95072.56;5031653;28;20224;-80
2022/05/08 06:09:53;;;;;;;4.97;2.30;;;;;;;23.19;27.29;95070.19;5031753;28;20200;-83
2022/05/08 06:12:20;;;;;;;3.88;2.70;;;;;;;23.50;26.74;95062.22;5032488;28;20227;-74
2022/05/08 06:14:47;;;;;;;3.20;2.50;;;;;;;21.64;28.96;95088.03;5032476;28;20223;-75
2022/05/08 06:17:14;;;;;;;5.82;2.40;;;;;;;21.59;29.53;95088.44;5012475;28;20296;-79
2022/05/08 06:19:40;;;;;;;6.85;2.80;;;;;;;21.54;29.24;95083.28;5026329;28;20239;-78
2022/05/08 06:22:07;;;;;;;3.53;2.55;;;;;;;21.21;29.51;95082.28;5032414;28;20212;-79
2022/05/08 06:24:38;;;;;;;3.45;2.20;;;;;;;21.96;28.69;95085.41;5032335;28;20210;-77
2022/05/08 06:27:05;;;;;;;7.13;2.28;;;;;;;21.95;29.24;95076.34;5032216;28;20707;-76
2022/05/08 06:29:32;;;;;;;3.97;2.28;;;;;;;22.48;27.98;95075.69;5032653;28;20243;-80
2022/05/08 06:31:58;;;;;;;3.83;2.25;;;;;;;22.60;28.12;95060.72;5032180;28;20227;-77
2022/05/08 06:34:26;;;;;;;5.70;2.50;;;;;;;23.11;27.75;95068.59;5046196;28;20262;-77
2022/05/08 06:36:53;;;;;;;4.25;2.50;;;;;;;24.64;26.34;95057.69;5028304;28;20287;-78
2022/05/08 06:39:20;;;;;;;4.40;2.72;;;;;;;23.36;26.93;95069.38;5031035;28;20204;-78
2022/05/08 06:41:48;;;;;;;4.43;2.50;;;;;;;22.06;28.06;95064.56;5030840;28;20197;-78
2022/05/08 06:44:15;;;;;;;6.22;2.42;;;;;;;22.70;27.45;95066.22;5030025;28;20232;-76
2022/05/08 06:46:42;;;;;;;2.60;2.17;;;;;;;24.39;25.90;95055.13;5030191;28;20228;-77
2022/05/08 06:49:10;;;;;;;6.03;2.30;;;;;;;24.55;25.69;95051.84;5030694;28;20204;-79
2022/05/08 06:51:37;;;;;;;2.95;2.17;;;;;;;24.20;25.38;95060.34;5030916;28;20208;-78
2022/05/08 06:54:04;;;;;;;7.90;1.80;;;;;;;22.46;27.34;95055.97;5023017;28;20196;-76
2022/05/08 06:56:35;;;;;;;3.80;2.58;;;;;;;22.25;28.29;95062.25;5030270;28;20208;-76
2022/05/08 07:01:48;;;;;;;6.05;2.35;;;;;;;23.66;26.33;95054.28;5028842;28;20729;-76
2022/05/08 07:04:18;;;;;;;3.47;2.10;;;;;;;24.75;25.07;95047.31;5030582;28;20223;-73
2022/05/08 07:06:48;;;;;;;4.20;2.00;;;;;;;24.54;25.20;95053.03;5030350;28;20224;-76
2022/05/08 07:09:15;;;;;;;5.03;2.42;;;;;;;24.56;25.06;95055.41;5030176;28;20215;-74
2022/05/08 07:11:45;;;;;;;6.63;2.50;;;;;;;25.14;25.32;95047.03;5030508;28;20205;-74
2022/05/08 07:14:13;;;;;;;4.75;2.28;;;;;;;25.32;24.86;95046.03;5031496;28;20756;-77
2022/05/08 07:16:40;;;;;;;11.88;2.75;;;;;;;25.47;25.16;95053.78;5031271;28;20207;-79
2022/05/08 07:19:07;;;;;;;4.38;2.42;;;;;;;25.18;25.43;95046.19;5031522;28;20262;-80
2022/05/08 07:21:33;;;;;;;4.47;2.60;;;;;;;24.41;26.44;95049.16;5030914;28;20204;-77
2022/05/08 07:24:00;;;;;;;4.72;3.00;;;;;;;23.61;26.76;95049.16;5031421;28;20211;-72
2022/05/08 07:26:27;;;;;;;6.22;2.75;;;;;;;23.42;27.64;95055.13;5030925;28;20211;-76
2022/05/08 07:28:54;;;;;;;5.30;2.60;;;;;;;23.76;27.30;95053.47;5031363;28;20200;-79
2022/05/08 07:31:24;;;;;;;4.53;2.60;;;;;;;22.66;28.38;95048.88;5030716;28;20200;-73
2022/05/08 07:36:12;;;;;;;4.18;2.47;;;;;;;23.20;28.53;95044.13;5030894;28;20606;-75
2022/05/08 07:36:38;;;;;;;7.30;2.65;;;;;;;22.92;28.70;95044.16;5017762;28;20190;-75
2022/05/08 07:39:05;;;;;;;5.50;2.80;;;;;;;22.74;28.77;95044.13;5030512;28;20208;-75
2022/05/08 07:41:32;;;;;;;9.18;3.00;;;;;;;21.87;30.29;95049.91;5030689;28;20435;-76
2022/05/08 07:43:59;;;;;;;5.30;2.90;;;;;;;20.87;31.71;95061.56;5041009;28;20228;-80
2022/05/08 07:46:27;;;;;;;5.45;2.92;;;;;;;21.23;31.25;95052.38;5030072;28;20228;-75
2022/05/08 07:48:54;;;;;;;6.50;2.78;;;;;;;22.52;29.43;95043.38;5030725;28;20200;-76
2022/05/08 07:51:21;;;;;;;6.07;2.67;;;;;;;23.31;28.71;95039.34;5031174;28;20558;-82
2022/05/08 07:53:48;;;;;;;7.10;2.50;;;;;;;22.99;29.12;95033.09;5030426;28;20208;-79
2022/05/08 07:56:15;;;;;;;4.38;2.80;;;;;;;22.53;29.02;95033.91;5030353;28;20204;-76
2022/05/08 07:58:42;;;;;;;4.68;2.70;;;;;;;22.54;29.99;95037.44;5030750;28;20741;-81
2022/05/08 08:01:09;;;;;;;6.78;3.38;;;;;;;21.84;29.90;95033.34;5030386;28;20262;-76
2022/05/08 08:03:37;;;;;;;5.63;2.92;;;;;;;22.15;30.38;95034.63;5030559;28;20204;-77
2022/05/08 08:06:04;;;;;;;6.22;3.40;;;;;;;21.66;30.48;95038.00;5029491;28;20227;-77
2022/05/08 08:08:31;;;;;;;4.47;3.10;;;;;;;20.45;32.66;95046.31;5029045;28;20251;-74
2022/05/08 08:11:03;;;;;;;8.35;3.25;;;;;;;19.81;33.54;95031.91;5029825;28;20203;-74
2022/05/08 08:13:31;;;;;;;4.18;2.83;;;;;;;19.88;33.33;95029.22;5029573;28;20197;-75
2022/05/08 08:16:00;;;;;;;6.70;3.20;;;;;;;19.90;33.17;95036.31;5028856;28;20588;-79
2022/05/08 08:18:26;;;;;;;5.65;2.95;;;;;;;20.17;34.11;95029.50;5029086;28;20220;-76
2022/05/08 08:20:55;;;;;;;3.58;2.85;;;;;;;20.30;33.45;95039.06;5030052;28;20545;-74
2022/05/08 08:23:22;;;;;;;3.58;2.55;;;;;;;20.24;34.97;95024.84;5032206;28;20702;-74
2022/05/08 08:25:49;;;;;;;5.63;3.10;;;;;;;20.83;33.33;95030.47;5034462;28;20196;-77
2022/05/08 08:28:16;;;;;;;5.88;3.10;;;;;;;20.52;33.47;95032.59;5032882;28;20675;-78
2022/05/08 08:30:43;;;;;;;4.68;3.10;;;;;;;20.23;34.04;95033.47;5030153;28;20203;-78
2022/05/08 08:33:10;;;;;;;4.57;3.08;;;;;;;19.95;34.24;95030.47;5033195;28;20609;-81
2022/05/08 08:35:37;;;;;;;5.07;2.75;;;;;;;19.36;34.85;95034.88;5033897;28;20208;-76
2022/05/08 08:38:05;;;;;;;5.25;2.80;;;;;;;19.30;35.23;95028.09;5032223;28;20670;-77
2022/05/08 08:40:33;;;;;;;5.93;2.30;;;;;;;19.92;34.16;95028.47;5033543;28;20671;-74
2022/05/08 08:43:00;;;;;;;4.80;2.35;;;;;;;20.07;36.00;95019.19;5036511;28;20277;-75
2022/05/08 08:48:25;;;;;;;4.47;2.70;;;;;;;19.93;33.70;95024.56;5035560;28;20226;-73
2022/05/08 08:50:52;;;;;;;6.22;2.88;;;;;;;19.96;33.42;95018.28;5047464;28;20204;-75
2022/05/08 08:53:21;;;;;;;3.88;2.60;;;;;;;20.23;33.21;95014.22;5034034;28;20197;-74
2022/05/08 08:55:50;;;;;;;5.53;2.60;;;;;;;19.53;34.39;95017.84;5033773;28;20204;-79
2022/05/08 08:58:17;;;;;;;4.50;2.80;;;;;;;20.34;34.22;95006.88;5033857;28;20295;-74
2022/05/08 09:00:44;;;;;;;5.65;2.50;;;;;;;20.38;33.20;95007.69;5034284;28;20196;-78
2022/05/08 09:03:10;;;;;;;3.97;2.58;;;;;;;20.48;33.42;95007.00;5033768;28;20207;-73
2022/05/08 09:05:37;;;;;;;2.50;2.10;;;;;;;19.81;31.58;95006.38;5033774;28;20301;-73
2022/05/08 09:08:05;;;;;;;3.70;2.20;;;;;;;19.99;32.94;95001.03;5033302;28;20236;-74
2022/05/08 09:10:36;;;;;;;3.22;2.20;;;;;;;20.38;32.76;95002.19;5033717;28;20200;-76
2022/05/08 09:13:07;;;;;;;3.97;2.05;;;;;;;19.54;33.58;95004.91;5033977;28;20613;-75
2022/05/08 09:15:36;;;;;;;4.82;2.25;;;;;;;19.25;34.04;95006.47;5020699;28;20204;-76
2022/05/08 09:18:04;;;;;;;3.97;2.30;;;;;;;19.36;34.01;95002.69;5033720;28;20229;-77
2022/05/08 09:20:33;;;;;;;4.93;2.30;;;;;;;19.35;33.54;94995.63;5033713;28;20240;-81
2022/05/08 09:23:10;;;;;;;3.55;2.42;;;;;;;19.47;34.50;94997.31;5032950;28;20204;-76
2022/05/08 09:25:45;;;;;;;4.13;2.78;;;;;;;20.35;33.15;94994.69;5031890;28;20218;-76
2022/05/08 09:28:12;;;;;;;3.72;2.20;;;;;;;20.29;33.21;94982.44;5032132;28;20721;-77
2022/05/08 09:30:57;;;;;;;3.08;2.30;;;;;;;20.21;32.06;94984.34;5032046;28;20196;-77
2022/05/08 09:33:27;;;;;;;3.67;2.08;;;;;;;20.32;32.44;94986.41;5031717;28;20279;-76
2022/05/08 09:35:55;;;;;;;7.18;2.33;;;;;;;20.09;30.74;94992.09;5030986;28;20202;-77
2022/05/08 09:38:22;;;;;;;2.75;2.08;;;;;;;20.02;30.75;94990.06;5032089;28;20582;-70
2022/05/08 09:41:08;;;;;;;4.28;2.35;;;;;;;20.69;28.81;94980.78;5032087;28;20260;-75
2022/05/08 09:43:35;;;;;;;2.45;1.90;;;;;;;21.01;29.50;94973.53;5030357;28;20193;-78
2022/05/08 09:46:04;;;;;;;3.42;2.25;;;;;;;20.67;28.74;94975.66;5031766;28;20725;-75
2022/05/08 09:48:34;;;;;;;3.88;2.33;;;;;;;20.07;29.54;94975.97;5032784;28;20224;-75
2022/05/08 09:51:02;;;;;;;3.45;2.13;;;;;;;20.62;29.18;94972.50;5032833;28;20231;-77
2022/05/08 09:53:31;;;;;;;2.90;2.25;;;;;;;21.05;28.86;94968.81;5032876;28;20210;-76
2022/05/08 09:55:59;;;;;;;5.80;2.30;;;;;;;20.77;28.10;94974.97;5031183;28;20664;-77
2022/05/08 09:58:27;;;;;;;4.82;2.20;;;;;;;20.34;28.71;94973.84;5032683;28;20215;-75
2022/05/08 10:00:56;;;;;;;4.55;2.30;;;;;;;20.77;29.42;94957.66;5032449;28;20663;-76
2022/05/08 10:03:22;;;;;;;5.82;2.00;;;;;;;20.55;28.90;94963.00;5031783;28;20232;-76
2022/05/08 10:05:50;;;;;;;2.55;1.80;;;;;;;20.45;27.89;94963.72;5031027;28;20207;-77
2022/05/08 10:08:18;;;;;;;2.78;2.10;;;;;;;20.67;27.50;94950.09;5031427;28;20342;-73
2022/05/08 10:14:03;;;;;;;3.25;2.20;;;;;;;20.46;28.60;94954.31;5032223;28;20331;-77
2022/05/08 10:16:51;;;;;;;2.78;2.30;;;;;;;21.35;28.86;94938.25;5045193;28;20235;-75
2022/05/08 10:19:45;;;;;;;4.07;2.00;;;;;;;20.97;28.49;94953.44;5032153;28;20220;-77
2022/05/08 10:22:13;;;;;;;4.05;2.20;;;;;;;21.10;27.08;94938.13;5021584;28;20193;-73
2022/05/08 10:24:42;;;;;;;2.78;1.75;;;;;;;21.24;26.90;94938.22;5032609;28;20210;-73
2022/05/08 10:27:10;;;;;;;4.90;2.13;;;;;;;21.07;27.92;94936.16;5032293;28;20208;-79
2022/05/08 10:29:38;;;;;;;4.18;2.20;;;;;;;21.57;27.47;94928.09;5031904;28;20327;-75
2022/05/08 10:32:09;;;;;;;3.45;1.85;;;;;;;21.32;27.39;94924.47;5032040;28;20295;-77
2022/05/08 10:34:37;;;;;;;4.28;2.28;;;;;;;21.20;28.12;94920.88;5031992;28;20189;-76
2022/05/08 10:37:29;;;;;;;2.30;1.90;;;;;;;21.60;25.92;94930.06;5031522;28;20228;-75
2022/05/08 10:39:57;;;;;;;3.22;2.05;;;;;;;21.40;26.33;94907.56;5019909;28;20196;-75
2022/05/08 10:42:42;;;;;;;3.40;2.10;;;;;;;21.32;26.73;94918.97;5032072;28;20707;-74
2022/05/08 10:45:40;;;;;;;2.20;2.00;;;;;;;21.16;27.52;94920.06;5022879;28;20330;-75
2022/05/08 10:48:12;;;;;;;3.83;1.67;;;;;;;21.73;28.58;94909.19;5020295;28;20598;-75
2022/05/08 10:50:42;;;;;;;2.38;1.95;;;;;;;22.05;26.61;94894.66;5031552;28;20204;-74
2022/05/08 10:53:24;;;;;;;2.78;1.85;;;;;;;21.74;27.45;94905.25;5031983;28;20303;-73
2022/05/08 10:55:52;;;;;;;2.97;1.73;;;;;;;21.81;27.10;94899.75;5031840;28;20270;-77
2022/05/08 10:58:19;;;;;;;3.95;2.15;;;;;;;21.39;27.77;94889.44;5031914;28;20204;-78
2022/05/08 11:00:47;;;;;;;4.80;2.05;;;;;;;21.71;27.32;94900.56;5031751;28;20208;-76
2022/05/08 11:03:22;;;;;;;2.67;2.08;;;;;;;22.01;27.21;94902.16;5030891;28;20274;-77
2022/05/08 11:05:49;;;;;;;5.90;2.47;;;;;;;21.70;27.11;94893.44;5018991;28;20277;-76
2022/05/08 11:08:23;;;;;;;2.63;1.67;;;;;;;22.03;28.18;94878.50;5031413;28;20231;-76
2022/05/08 11:10:58;;;;;;;3.38;2.10;;;;;;;21.81;27.86;94888.72;5031761;28;20273;-77
2022/05/08 11:13:26;;;;;;;2.58;1.90;;;;;;;21.88;27.44;94876.91;5031668;28;20230;-73
2022/05/08 11:15:55;;;;;;;2.83;2.08;;;;;;;22.09;27.75;94881.69;5024650;28;20637;-79
2022/05/08 11:18:24;;;;;;;4.25;2.30;;;;;;;22.34;28.32;94872.19;5028200;28;20252;-77
2022/05/08 11:20:53;;;;;;;3.08;2.13;;;;;;;22.72;28.01;94863.41;5031697;28;20216;-74
2022/05/08 11:23:21;;;;;;;5.97;2.42;;;;;;;22.68;28.17;94868.97;5030923;28;20685;-75
2022/05/08 11:25:50;;;;;;;3.67;2.38;;;;;;;23.06;28.34;94866.47;5031489;28;20197;-76
2022/05/08 11:28:19;;;;;;;4.47;2.15;;;;;;;22.98;27.31;94865.69;5031447;28;20228;-75
2022/05/08 11:30:48;;;;;;;3.38;2.03;;;;;;;22.68;27.28;94864.22;5031092;28;20207;-79
2022/05/08 11:36:07;;;;;;;5.35;1.92;;;;;;;21.89;27.27;94861.94;5028933;28;20194;-76
2022/05/08 11:38:41;;;;;;;5.05;1.85;;;;;;;22.30;26.63;94852.06;5020550;28;20656;-77
2022/05/08 11:41:09;;;;;;;2.45;1.73;;;;;;;22.27;26.68;94849.34;5031121;28;20234;-80
2022/05/08 11:43:41;;;;;;;3.60;2.08;;;;;;;22.44;27.01;94856.78;5038073;28;20565;-76
2022/05/08 11:46:08;;;;;;;2.20;1.70;;;;;;;22.21;25.87;94845.38;5032514;28;20651;-71
2022/05/08 11:48:40;;;;;;;2.72;1.80;;;;;;;21.96;25.25;94840.66;5032352;28;20266;-72
2022/05/08 11:51:08;;;;;;;2.17;1.42;;;;;;;22.22;24.98;94849.72;5030474;28;20648;-73
2022/05/08 11:53:45;;;;;;;1.50;1.40;;;;;;;22.09;23.81;94843.03;5030323;28;20215;-74
2022/05/08 11:56:26;;;;;;;2.50;1.52;;;;;;;22.28;24.89;94839.84;5018722;28;20199;-74
2022/05/08 11:58:53;;;;;;;2.20;1.50;;;;;;;21.79;24.83;94844.19;5030200;28;20197;-72
2022/05/08 12:01:29;;;;;;;2.22;1.40;;;;;;;22.03;24.70;94850.13;5030571;28;20204;-75
2022/05/08 12:03:59;;;;;;;4.30;1.80;;;;;;;22.26;23.76;94837.50;5030802;28;20258;-74
2022/05/08 12:06:25;;;;;;;3.00;1.50;;;;;;;22.46;22.73;94846.13;5029651;28;20946;-71